Time;durP1;ratioP1;P1;durP2;ratioP2;P2;SDS_P1;SDS_P2;PMS_P1;PMS_P2;Temp;Humidity;BMP_temperature;BMP_pressure;BME280_temperature;BME280_humidity;BME280_pressure;Samples;Min_cycle;Max_cycle;Signal;HPM_P1;HPM_P2
2022/06/16 00:02:14;;;;;;;6.55;4.78;;;13.10;99.90;;;;;;5005988;28;20043;-76
2022/06/16 00:04:46;;;;;;;9.63;5.15;;;13.10;99.90;;;;;;5012155;28;20046;-76
2022/06/16 00:07:15;;;;;;;7.78;4.78;;;13.00;99.90;;;;;;5012834;28;20049;-75
2022/06/16 00:09:41;;;;;;;9.88;4.88;;;13.00;99.90;;;;;;5026479;28;20063;-76
2022/06/16 00:12:07;;;;;;;7.78;4.50;;;13.00;99.90;;;;;;4971669;28;20057;-76
2022/06/16 00:14:33;;;;;;;9.05;5.07;;;12.90;99.90;;;;;;5002554;28;20073;-76
2022/06/16 00:16:59;;;;;;;8.07;5.07;;;12.90;99.90;;;;;;4996787;28;20029;-76
2022/06/16 00:19:25;;;;;;;10.45;5.15;;;12.80;99.90;;;;;;5013285;28;20111;-76
2022/06/16 00:21:50;;;;;;;7.93;5.10;;;12.90;99.90;;;;;;5028643;28;20474;-76
2022/06/16 00:24:16;;;;;;;7.85;4.70;;;12.80;99.90;;;;;;4998105;28;20139;-76
2022/06/16 00:26:42;;;;;;;9.93;5.47;;;12.80;99.90;;;;;;4998027;28;20046;-76
2022/06/16 00:29:08;;;;;;;9.38;4.90;;;12.80;99.90;;;;;;4985022;28;20046;-76
2022/06/16 00:31:34;;;;;;;7.47;5.03;;;12.70;99.90;;;;;;4997541;28;20053;-76
2022/06/16 00:34:00;;;;;;;7.13;4.75;;;12.70;99.90;;;;;;5018625;28;20161;-76
2022/06/16 00:36:26;;;;;;;10.05;5.53;;;12.70;99.90;;;;;;5013291;28;20045;-76
2022/06/16 00:38:52;;;;;;;10.18;5.50;;;12.70;99.90;;;;;;5001444;28;20033;-76
2022/06/16 00:41:18;;;;;;;10.30;5.43;;;12.60;99.90;;;;;;5005776;28;20045;-76
2022/06/16 00:43:45;;;;;;;10.32;5.20;;;12.60;99.90;;;;;;5013072;28;20092;-76
2022/06/16 00:46:19;;;;;;;7.85;5.32;;;12.60;99.90;;;;;;5011253;28;20042;-75
2022/06/16 00:48:55;;;;;;;10.48;5.43;;;12.60;99.90;;;;;;5028059;28;20522;-76
2022/06/16 00:51:34;;;;;;;8.25;5.43;;;12.60;99.90;;;;;;5020018;28;20096;-75
2022/06/16 00:54:04;;;;;;;6.90;5.38;;;12.60;99.90;;;;;;5028701;28;20099;-76
2022/06/16 00:56:30;;;;;;;7.50;5.55;;;12.60;99.90;;;;;;5027373;28;20113;-76
2022/06/16 00:59:01;;;;;;;8.57;5.65;;;12.60;99.90;;;;;;5011382;28;20056;-76
2022/06/16 01:01:28;;;;;;;9.57;5.88;;;12.60;99.90;;;;;;5031098;28;20511;-76
2022/06/16 01:06:45;;;;;;;9.70;5.32;;;12.50;99.90;;;;;;5028188;28;20053;-76
2022/06/16 01:09:14;;;;;;;8.93;5.45;;;12.40;99.90;;;;;;5014741;28;20034;-76
2022/06/16 01:15:01;;;;;;;7.63;5.15;;;12.40;99.90;;;;;;5010849;28;20038;-76
2022/06/16 01:17:36;;;;;;;9.43;5.20;;;12.40;99.90;;;;;;5014378;28;20124;-77
2022/06/16 01:20:27;;;;;;;7.57;4.85;;;12.30;99.90;;;;;;4995795;28;20059;-76
2022/06/16 01:23:38;;;;;;;8.07;5.53;;;12.40;99.90;;;;;;4996252;28;20037;-76
2022/06/16 01:26:34;;;;;;;6.70;4.47;;;12.40;99.90;;;;;;5008135;28;20077;-76
2022/06/16 01:29:12;;;;;;;8.98;4.90;;;12.40;99.90;;;;;;4999589;28;20072;-76
2022/06/16 01:31:41;;;;;;;9.13;5.47;;;12.40;99.90;;;;;;5014959;28;20253;-76
2022/06/16 01:34:44;;;;;;;6.72;5.70;;;12.40;99.90;;;;;;5024557;28;20130;-75
2022/06/16 01:37:17;;;;;;;7.80;5.18;;;12.30;99.90;;;;;;5035340;28;20040;-75
2022/06/16 01:40:01;;;;;;;8.80;5.80;;;12.20;99.90;;;;;;5033151;28;20295;-77
2022/06/16 01:42:39;;;;;;;10.07;6.00;;;12.20;99.90;;;;;;5020509;28;20045;-76
2022/06/16 01:45:59;;;;;;;10.88;6.05;;;12.20;99.90;;;;;;5016105;28;20045;-76
2022/06/16 01:48:27;;;;;;;8.98;5.95;;;12.20;99.90;;;;;;4989291;28;20175;-76
2022/06/16 01:51:25;;;;;;;8.70;5.78;;;12.20;99.90;;;;;;4981763;28;20048;-75
2022/06/16 01:54:07;;;;;;;9.68;6.75;;;12.20;99.90;;;;;;4973803;28;20038;-76
2022/06/16 01:56:42;;;;;;;12.30;7.07;;;12.10;99.90;;;;;;4969079;28;20034;-76
2022/06/16 01:59:18;;;;;;;11.48;6.10;;;12.10;99.90;;;;;;4993386;28;20049;-75
2022/06/16 02:01:49;;;;;;;8.90;6.78;;;12.10;99.90;;;;;;5019694;28;20103;-76
2022/06/16 02:04:25;;;;;;;8.88;6.05;;;12.10;99.90;;;;;;5020664;28;20034;-76
2022/06/16 02:06:55;;;;;;;12.05;6.65;;;12.10;99.90;;;;;;5031066;28;20045;-76
2022/06/16 02:09:27;;;;;;;8.88;6.30;;;12.10;99.90;;;;;;5030755;28;20076;-76
2022/06/16 02:11:57;;;;;;;11.00;6.43;;;12.00;99.90;;;;;;5015044;28;20034;-75
2022/06/16 02:14:41;;;;;;;10.10;5.85;;;12.10;99.90;;;;;;4985583;28;20042;-76
2022/06/16 02:17:25;;;;;;;10.50;5.97;;;12.00;99.90;;;;;;4971387;28;20101;-76
2022/06/16 02:19:51;;;;;;;9.30;6.63;;;12.00;99.90;;;;;;4983506;28;20072;-75
2022/06/16 02:22:17;;;;;;;8.52;5.93;;;12.00;99.90;;;;;;4952520;28;20547;-76
2022/06/16 02:24:43;;;;;;;8.80;6.38;;;11.90;99.90;;;;;;4966259;28;20522;-76
2022/06/16 02:27:08;;;;;;;9.40;6.95;;;11.90;99.90;;;;;;4952170;28;20034;-76
2022/06/16 02:29:37;;;;;;;8.93;6.05;;;11.90;99.90;;;;;;4951174;28;21315;-76
2022/06/16 02:32:18;;;;;;;9.65;5.97;;;11.80;99.90;;;;;;4984108;28;20511;-76
2022/06/16 02:34:54;;;;;;;9.10;5.72;;;11.80;99.90;;;;;;4953469;28;20290;-76
2022/06/16 02:38:10;;;;;;;11.70;6.40;;;11.80;99.90;;;;;;4968762;28;21547;-76
2022/06/16 02:41:12;;;;;;;8.35;6.28;;;11.80;99.90;;;;;;4981587;28;20574;-75
2022/06/16 02:44:03;;;;;;;10.45;6.18;;;11.80;99.90;;;;;;4952176;28;20048;-76
2022/06/16 02:46:47;;;;;;;14.05;7.25;;;11.80;99.90;;;;;;5026611;28;20056;-75
2022/06/16 02:49:45;;;;;;;12.63;7.47;;;11.80;99.90;;;;;;5028864;28;20041;-76
2022/06/16 02:52:34;;;;;;;9.98;7.22;;;11.90;99.90;;;;;;4999594;28;20084;-76
2022/06/16 02:55:27;;;;;;;9.60;6.38;;;11.80;99.90;;;;;;4999597;28;20466;-76
2022/06/16 02:57:59;;;;;;;10.73;6.40;;;11.80;99.90;;;;;;5009295;28;20063;-76
2022/06/16 03:00:49;;;;;;;10.88;6.63;;;11.80;99.90;;;;;;5018493;28;20037;-76
2022/06/16 03:03:38;;;;;;;12.88;6.47;;;11.70;99.90;;;;;;5016906;28;20049;-76
2022/06/16 03:06:05;;;;;;;9.80;6.82;;;11.70;99.90;;;;;;5017223;28;20041;-76
2022/06/16 03:08:38;;;;;;;11.25;6.80;;;11.70;99.90;;;;;;5013816;28;20088;-75
2022/06/16 03:11:08;;;;;;;;;;;11.70;99.90;;;;;;5013898;28;20125;-76
2022/06/16 03:13:34;;;;;;;12.52;7.18;;;11.70;99.90;;;;;;4997781;28;19921;-76
2022/06/16 03:16:18;;;;;;;12.15;7.00;;;11.70;99.90;;;;;;5014137;28;20073;-76
2022/06/16 03:18:50;;;;;;;10.38;7.28;;;11.80;99.90;;;;;;5007385;28;20517;-76
2022/06/16 03:22:07;;;;;;;13.07;6.97;;;11.80;99.90;;;;;;5005768;28;20518;-76
2022/06/16 03:24:37;;;;;;;11.43;6.40;;;11.80;99.90;;;;;;4969608;28;20545;-76
2022/06/16 03:27:04;;;;;;;11.23;6.78;;;11.80;99.90;;;;;;5028986;28;20384;-76
2022/06/16 03:29:30;;;;;;;14.65;7.72;;;11.80;99.90;;;;;;5012606;28;20041;-76
2022/06/16 03:31:56;;;;;;;13.75;7.28;;;11.90;99.90;;;;;;5010502;28;20083;-76
2022/06/16 03:34:30;;;;;;;11.80;7.15;;;11.90;99.90;;;;;;4999365;28;20139;-76
2022/06/16 03:36:56;;;;;;;;;;;11.90;99.90;;;;;;5023590;28;20049;-76
2022/06/16 03:39:22;;;;;;;11.00;7.22;;;11.90;99.90;;;;;;5012214;28;19927;-76
2022/06/16 03:41:48;;;;;;;12.82;7.15;;;11.90;99.90;;;;;;5028255;28;20038;-76
2022/06/16 03:44:14;;;;;;;10.45;6.63;;;11.90;99.90;;;;;;5027766;28;20052;-76
2022/06/16 03:46:43;;;;;;;10.00;6.72;;;11.90;99.90;;;;;;5009005;28;20042;-76
2022/06/16 03:49:09;;;;;;;11.55;7.25;;;11.90;99.90;;;;;;5005399;28;20033;-76
2022/06/16 03:51:39;;;;;;;8.73;6.53;;;12.00;99.90;;;;;;4999834;28;20450;-77
2022/06/16 03:54:05;;;;;;;11.20;6.57;;;11.90;99.90;;;;;;5032812;28;20041;-76
2022/06/16 03:56:31;;;;;;;9.02;7.43;;;12.00;99.90;;;;;;5010381;28;20060;-76
2022/06/16 03:58:57;;;;;;;10.30;6.80;;;12.00;99.90;;;;;;5021324;28;20395;-76
2022/06/16 04:01:23;;;;;;;9.85;6.90;;;11.90;99.90;;;;;;5020625;28;20048;-76
2022/06/16 04:04:22;;;;;;;7.68;6.57;;;11.90;99.90;;;;;;5010471;28;20038;-76
2022/06/16 04:06:51;;;;;;;10.75;7.00;;;11.90;99.90;;;;;;5019634;28;20041;-76
2022/06/16 04:09:17;;;;;;;10.52;6.20;;;11.90;99.90;;;;;;5019814;28;20118;-76
2022/06/16 04:11:46;;;;;;;11.25;6.93;;;11.90;99.90;;;;;;5021021;28;20041;-76
2022/06/16 04:14:14;;;;;;;11.30;6.68;;;11.80;99.90;;;;;;5025624;28;20488;-77
2022/06/16 04:16:52;;;;;;;12.85;7.65;;;11.80;99.90;;;;;;5026734;28;20029;-76
2022/06/16 04:19:21;;;;;;;11.38;6.28;;;11.80;99.90;;;;;;5019132;28;20037;-76
2022/06/16 04:21:49;;;;;;;10.15;6.70;;;11.80;99.90;;;;;;5030627;28;20106;-76
2022/06/16 04:24:16;;;;;;;12.95;7.22;;;11.80;99.90;;;;;;5021942;28;20052;-76
2022/06/16 04:26:45;;;;;;;13.55;7.30;;;11.90;99.90;;;;;;5028763;28;20046;-77
2022/06/16 04:29:20;;;;;;;12.27;7.25;;;11.80;99.90;;;;;;5030086;28;20046;-77
2022/06/16 04:31:49;;;;;;;10.18;7.07;;;11.80;99.90;;;;;;5028213;28;20048;-77
2022/06/16 04:34:14;;;;;;;11.18;7.47;;;11.90;99.90;;;;;;4991152;28;20041;-77
2022/06/16 04:36:41;;;;;;;12.13;6.65;;;11.90;99.90;;;;;;5004425;28;20526;-77
2022/06/16 04:39:06;;;;;;;11.45;7.55;;;12.00;99.90;;;;;;5000993;28;20026;-77
2022/06/16 04:41:32;;;;;;;18.33;7.82;;;11.90;99.90;;;;;;5028071;28;20487;-77
2022/06/16 04:43:58;;;;;;;13.23;7.43;;;11.30;99.90;;;;;;5026459;28;20045;-77
2022/06/16 04:46:27;;;;;;;15.25;7.43;;;12.00;99.90;;;;;;4973129;28;20539;-76
2022/06/16 04:48:52;;;;;;;14.15;7.57;;;12.10;99.90;;;;;;5001036;28;20038;-77
2022/06/16 04:51:18;;;;;;;8.55;6.78;;;12.20;99.90;;;;;;5008488;28;20041;-76
2022/06/16 04:53:44;;;;;;;13.80;7.03;;;12.20;99.90;;;;;;5004977;28;20049;-76
2022/06/16 04:56:10;;;;;;;14.80;6.93;;;12.30;99.90;;;;;;5015950;28;21532;-76
2022/06/16 04:58:42;;;;;;;10.10;7.18;;;12.40;99.90;;;;;;5003291;28;20179;-77
2022/06/16 05:01:08;;;;;;;12.13;7.43;;;12.50;99.90;;;;;;5026678;28;20044;-77
2022/06/16 05:03:34;;;;;;;11.63;6.65;;;12.60;99.90;;;;;;5012739;28;20422;-77
2022/06/16 05:06:20;;;;;;;11.10;7.18;;;12.70;99.90;;;;;;5025500;28;20049;-77
2022/06/16 05:08:45;;;;;;;10.00;6.25;;;12.80;99.90;;;;;;5016274;28;20041;-77
2022/06/16 05:11:22;;;;;;;10.63;5.85;;;12.90;99.90;;;;;;5006742;28;20076;-78
2022/06/16 05:13:48;;;;;;;11.93;6.45;;;13.00;99.90;;;;;;5024067;28;20041;-78
2022/06/16 05:16:14;;;;;;;9.10;5.70;;;13.10;99.90;;;;;;5034445;28;20036;-76
2022/06/16 05:18:40;;;;;;;11.35;5.63;;;13.20;99.90;;;;;;5036352;28;20503;-77
2022/06/16 05:21:11;;;;;;;9.15;5.03;;;13.40;99.90;;;;;;5000400;28;20037;-78
2022/06/16 05:23:37;;;;;;;6.18;4.53;;;13.40;99.90;;;;;;5029288;28;20112;-77
2022/06/16 05:26:04;;;;;;;8.85;5.05;;;13.50;99.90;;;;;;5003844;28;20083;-77
2022/06/16 05:28:31;;;;;;;9.52;5.25;;;13.60;99.90;;;;;;5032279;28;20107;-77
2022/06/16 05:30:57;;;;;;;11.85;5.57;;;13.70;99.90;;;;;;5023613;28;20051;-77
2022/06/16 05:33:23;;;;;;;8.27;5.15;;;13.70;99.90;;;;;;5014201;28;20084;-78
2022/06/16 05:36:01;;;;;;;6.28;4.60;;;13.80;99.90;;;;;;4999521;28;20046;-77
2022/06/16 05:39:24;;;;;;;6.75;4.15;;;13.80;99.90;;;;;;5017241;28;20044;-77
2022/06/16 05:41:53;;;;;;;10.10;3.70;;;13.90;99.90;;;;;;5013131;28;20053;-77
2022/06/16 05:44:19;;;;;;;6.45;4.10;;;14.00;99.90;;;;;;4999829;28;20045;-78
2022/06/16 05:46:45;;;;;;;6.93;4.47;;;14.10;99.90;;;;;;5004892;28;20041;-77
2022/06/16 05:49:16;;;;;;;11.20;5.18;;;14.30;99.90;;;;;;5008074;28;20038;-77
2022/06/16 05:51:42;;;;;;;4.68;3.80;;;14.40;99.90;;;;;;5014995;28;20037;-77
2022/06/16 05:54:10;;;;;;;10.02;3.90;;;14.50;99.90;;;;;;5016005;28;20030;-77
2022/06/16 05:56:36;;;;;;;6.35;4.32;;;14.60;99.90;;;;;;5006600;28;20133;-77
2022/06/16 05:59:02;;;;;;;9.02;4.20;;;14.60;99.90;;;;;;5002875;28;20116;-77
2022/06/16 06:01:28;;;;;;;7.82;4.10;;;14.70;99.90;;;;;;4997451;28;20049;-77
2022/06/16 06:03:53;;;;;;;6.03;4.15;;;14.70;99.90;;;;;;4993215;28;20041;-77
2022/06/16 06:06:19;;;;;;;7.90;3.85;;;14.70;99.90;;;;;;5030143;28;20043;-77
2022/06/16 06:17:15;;;;;;;5.47;3.00;;;14.90;99.90;;;;;;5015192;28;20042;-79
2022/06/16 06:19:42;;;;;;;9.05;3.20;;;15.00;99.90;;;;;;5019443;28;20048;-79
2022/06/16 06:22:13;;;;;;;7.85;3.28;;;15.00;99.90;;;;;;5031494;28;20253;-79
2022/06/16 06:24:43;;;;;;;5.77;2.70;;;15.10;99.90;;;;;;5027746;28;20192;-79
2022/06/16 06:27:29;;;;;;;6.28;3.40;;;15.10;99.90;;;;;;5033498;28;20300;-79
2022/06/16 06:29:55;;;;;;;6.88;2.72;;;15.20;99.90;;;;;;5012945;28;20046;-79
2022/06/16 06:32:23;;;;;;;4.03;2.45;;;15.30;99.90;;;;;;4989097;28;20185;-79
2022/06/16 06:34:49;;;;;;;5.38;2.38;;;15.30;99.90;;;;;;5032160;28;20033;-80
2022/06/16 06:37:18;;;;;;;9.75;2.83;;;15.40;99.90;;;;;;4986811;28;20041;-79
2022/06/16 06:39:44;;;;;;;6.45;2.50;;;15.50;99.90;;;;;;5021138;28;20049;-79
2022/06/16 06:42:10;;;;;;;7.22;2.30;;;15.40;99.90;;;;;;5005789;28;20103;-79
2022/06/16 06:44:36;;;;;;;3.70;2.00;;;15.60;99.90;;;;;;5029014;28;20128;-78
2022/06/16 06:47:03;;;;;;;3.40;2.00;;;15.70;99.90;;;;;;5016612;28;20038;-78
2022/06/16 06:49:29;;;;;;;4.65;2.28;;;15.80;99.90;;;;;;5013024;28;20037;-78
2022/06/16 06:51:55;;;;;;;2.58;1.88;;;15.90;99.90;;;;;;5009458;28;20049;-78
2022/06/16 06:54:21;;;;;;;4.18;2.05;;;16.00;99.90;;;;;;5000837;28;20116;-79
2022/06/16 06:56:48;;;;;;;4.00;1.67;;;16.00;99.90;;;;;;5013625;28;20433;-78
2022/06/16 06:59:18;;;;;;;4.95;2.28;;;16.10;99.90;;;;;;5031827;28;20065;-78
2022/06/16 07:01:49;;;;;;;3.25;1.70;;;16.20;99.90;;;;;;4997499;28;20516;-79
2022/06/16 07:04:16;;;;;;;5.28;1.88;;;16.30;99.90;;;;;;5014232;28;20466;-78
2022/06/16 07:06:43;;;;;;;4.90;2.13;;;16.40;99.90;;;;;;5030928;28;20180;-79
2022/06/16 07:09:13;;;;;;;5.00;2.55;;;16.50;99.90;;;;;;5013440;28;20048;-78
2022/06/16 07:11:41;;;;;;;2.70;1.88;;;16.60;99.90;;;;;;5027783;28;20079;-78
2022/06/16 07:14:08;;;;;;;3.53;2.08;;;16.70;99.90;;;;;;5012434;28;20281;-79
2022/06/16 07:16:34;;;;;;;3.85;1.60;;;16.80;99.90;;;;;;5029920;28;20861;-79
2022/06/16 07:19:00;;;;;;;5.53;2.20;;;16.90;99.90;;;;;;5014387;28;20120;-79
2022/06/16 07:21:25;;;;;;;4.75;2.50;;;17.00;99.90;;;;;;5030093;28;20132;-78
2022/06/16 07:23:52;;;;;;;4.80;2.55;;;17.10;99.90;;;;;;5028185;28;20124;-79
2022/06/16 07:26:19;;;;;;;3.25;2.22;;;17.20;99.90;;;;;;5031162;28;20045;-79
2022/06/16 07:28:45;;;;;;;6.40;2.40;;;17.30;99.90;;;;;;5029961;28;20904;-80
2022/06/16 07:31:11;;;;;;;3.85;2.10;;;17.30;99.90;;;;;;5016295;28;20153;-78
2022/06/16 07:33:37;;;;;;;3.50;1.75;;;17.40;99.90;;;;;;5014761;28;20053;-79
2022/06/16 07:36:03;;;;;;;2.83;1.60;;;17.50;99.90;;;;;;4998636;28;20056;-80
2022/06/16 07:38:29;;;;;;;3.85;1.92;;;17.60;99.90;;;;;;5013761;28;20038;-79
2022/06/16 07:41:31;;;;;;;3.25;1.95;;;17.70;99.90;;;;;;5012644;28;20226;-79
2022/06/16 07:43:41;;;;;;;3.33;1.77;;;17.90;99.90;;;;;;5026361;28;20316;-79
2022/06/16 07:46:06;;;;;;;3.60;1.50;;;18.00;99.90;;;;;;5008010;28;20048;-79
2022/06/16 07:48:32;;;;;;;2.95;1.52;;;18.10;99.90;;;;;;5019470;28;20044;-78
2022/06/16 07:50:58;;;;;;;2.55;1.40;;;18.10;99.90;;;;;;5012067;28;20037;-79
2022/06/16 07:53:23;;;;;;;3.42;1.33;;;18.20;99.90;;;;;;5010206;28;20068;-79
2022/06/16 07:55:49;;;;;;;4.20;1.40;;;18.30;99.90;;;;;;5027994;28;20073;-80
2022/06/16 07:58:15;;;;;;;3.53;1.10;;;18.40;99.90;;;;;;5013896;28;20403;-79
2022/06/16 08:00:41;;;;;;;2.92;1.50;;;18.50;99.90;;;;;;5026653;28;20073;-79
2022/06/16 08:03:06;;;;;;;1.83;1.20;;;18.60;99.90;;;;;;4983705;28;20458;-79
2022/06/16 08:05:32;;;;;;;2.22;1.40;;;18.60;99.50;;;;;;5016097;28;20044;-80
2022/06/16 08:07:58;;;;;;;4.03;1.55;;;18.60;98.50;;;;;;5013561;28;20694;-80
2022/06/16 08:10:27;;;;;;;2.33;1.33;;;18.70;98.90;;;;;;5015257;28;20566;-79
2022/06/16 08:12:52;;;;;;;2.95;1.55;;;18.70;99.20;;;;;;5027138;28;20034;-80
2022/06/16 08:15:18;;;;;;;1.27;1.15;;;18.90;99.10;;;;;;5013696;28;20033;-79
2022/06/16 08:17:49;;;;;;;3.33;1.50;;;19.00;99.20;;;;;;4998783;28;20463;-79
2022/06/16 08:20:15;;;;;;;2.38;1.50;;;19.10;99.10;;;;;;5025102;28;20376;-80
2022/06/16 08:22:42;;;;;;;4.30;1.75;;;19.10;98.50;;;;;;5010323;28;20069;-79
2022/06/16 08:25:10;;;;;;;3.72;1.70;;;19.20;98.50;;;;;;5029204;28;20403;-80
2022/06/16 08:27:37;;;;;;;2.72;1.40;;;19.20;98.40;;;;;;5016496;28;20045;-81
2022/06/16 08:30:09;;;;;;;4.50;1.23;;;19.40;98.40;;;;;;5000177;28;20526;-82
2022/06/16 08:32:35;;;;;;;3.65;1.65;;;19.40;98.20;;;;;;5011963;28;20256;-80
2022/06/16 08:35:01;;;;;;;2.28;1.50;;;19.60;98.50;;;;;;5001960;28;20049;-81
2022/06/16 08:37:27;;;;;;;2.92;1.60;;;19.80;98.40;;;;;;5021148;28;20041;-79
2022/06/16 08:39:52;;;;;;;3.75;1.65;;;19.80;97.80;;;;;;5003840;28;20052;-78
2022/06/16 08:42:45;;;;;;;2.78;1.60;;;19.70;97.60;;;;;;4994198;28;20038;-79
2022/06/16 08:45:11;;;;;;;;;;;19.90;98.10;;;;;;5022726;28;20155;-79
2022/06/16 08:47:42;;;;;;;2.13;2.00;;;20.00;97.50;;;;;;5022758;28;19996;-79
2022/06/16 08:50:14;;;;;;;3.37;1.93;;;20.10;97.70;;;;;;5035624;28;20087;-79
2022/06/16 08:53:28;;;;;;;3.38;1.50;;;20.10;97.50;;;;;;5021877;28;20042;-80
2022/06/16 08:56:21;;;;;;;5.43;2.00;;;20.20;97.50;;;;;;5013641;28;20355;-80
2022/06/16 08:58:59;;;;;;;3.42;1.70;;;20.40;96.70;;;;;;5032484;28;20462;-80
2022/06/16 09:01:39;;;;;;;3.75;1.73;;;20.40;96.50;;;;;;5010974;28;20572;-80
2022/06/16 09:04:42;;;;;;;3.92;1.63;;;20.40;96.60;;;;;;5011112;28;20124;-80
2022/06/16 09:07:20;;;;;;;3.58;1.90;;;20.40;96.10;;;;;;4993974;28;20049;-79
2022/06/16 09:13:16;;;;;;;3.25;2.00;;;20.70;96.20;;;;;;5030445;28;20164;-80
2022/06/16 09:16:07;;;;;;;5.90;2.10;;;20.70;95.30;;;;;;5009723;28;20097;-80
2022/06/16 09:19:04;;;;;;;3.42;1.75;;;20.90;95.00;;;;;;5016776;28;20040;-80
2022/06/16 09:21:42;;;;;;;3.33;1.88;;;20.90;95.80;;;;;;5029812;28;20137;-80
2022/06/16 09:24:20;;;;;;;2.80;2.13;;;21.10;96.10;;;;;;5016272;28;20074;-80
2022/06/16 09:26:56;;;;;;;2.05;1.85;;;21.30;95.70;;;;;;5029900;28;20037;-80
2022/06/16 09:29:34;;;;;;;4.63;2.42;;;21.20;95.20;;;;;;5031252;28;20072;-81
2022/06/16 09:35:28;;;;;;;4.15;2.35;;;21.50;95.00;;;;;;5017005;28;20045;-80
2022/06/16 09:38:23;;;;;;;8.63;2.70;;;21.50;95.00;;;;;;5028077;28;20873;-80
2022/06/16 09:42:32;;;;;;;4.55;2.40;;;21.50;95.70;;;;;;5031260;28;20449;-80
2022/06/16 09:44:23;;;;;;;6.65;2.90;;;21.70;94.60;;;;;;5016664;28;20072;-80
2022/06/16 09:46:55;;;;;;;3.70;2.30;;;21.80;93.60;;;;;;5017408;28;20037;-79
2022/06/16 09:49:50;;;;;;;4.45;2.72;;;21.70;94.10;;;;;;5014106;28;20456;-81
2022/06/16 09:52:32;;;;;;;8.85;2.75;;;21.70;93.90;;;;;;5029111;28;20064;-82
2022/06/16 09:55:02;;;;;;;;;;;21.80;94.30;;;;;;5034180;28;20371;-78
2022/06/16 09:57:49;;;;;;;4.35;2.45;;;21.80;94.40;;;;;;5015935;28;19927;-78
2022/06/16 10:00:21;;;;;;;4.05;2.67;;;22.00;94.10;;;;;;5014174;28;20038;-83
2022/06/16 10:02:52;;;;;;;;;;;22.00;93.40;;;;;;4999666;28;20041;-79
2022/06/16 10:05:35;;;;;;;4.82;2.47;;;22.20;93.00;;;;;;5019007;28;19924;-79
2022/06/16 10:08:26;;;;;;;4.97;2.25;;;22.20;94.20;;;;;;5013209;28;20073;-80
2022/06/16 10:11:30;;;;;;;3.85;2.28;;;22.30;94.30;;;;;;5034014;28;20120;-79
2022/06/16 10:14:14;;;;;;;7.28;2.50;;;22.50;93.60;;;;;;5003401;28;20049;-80
2022/06/16 10:16:55;;;;;;;5.93;3.00;;;22.50;92.90;;;;;;5000460;28;20045;-79
2022/06/16 10:19:28;;;;;;;4.72;2.67;;;22.50;90.80;;;;;;5029710;28;20056;-79
2022/06/16 10:21:55;;;;;;;9.23;2.78;;;22.60;92.20;;;;;;5017778;28;20041;-79
2022/06/16 10:24:25;;;;;;;6.00;2.72;;;22.70;91.70;;;;;;5029148;28;20128;-79
2022/06/16 10:26:52;;;;;;;6.22;2.42;;;22.70;91.50;;;;;;5018877;28;20285;-80
2022/06/16 10:29:27;;;;;;;6.03;2.50;;;22.80;91.40;;;;;;5030246;28;20626;-79
2022/06/16 10:31:56;;;;;;;6.97;3.05;;;23.00;91.00;;;;;;5010921;28;20407;-79
2022/06/16 10:34:38;;;;;;;3.67;2.75;;;23.20;90.90;;;;;;5012000;28;20045;-79
2022/06/16 10:37:19;;;;;;;6.25;2.90;;;23.20;90.70;;;;;;5023111;28;20041;-80
2022/06/16 10:39:55;;;;;;;2.78;2.35;;;22.90;90.20;;;;;;5032805;28;20038;-79
2022/06/16 10:42:27;;;;;;;6.13;2.70;;;22.70;90.30;;;;;;5022179;28;20065;-80
2022/06/16 10:45:02;;;;;;;6.25;2.80;;;22.60;91.10;;;;;;5023060;28;20052;-79
2022/06/16 10:47:39;;;;;;;4.88;3.00;;;22.60;90.60;;;;;;4999262;28;20384;-79
2022/06/16 10:50:14;;;;;;;12.48;3.10;;;22.80;91.60;;;;;;5028335;28;20042;-79
2022/06/16 10:52:47;;;;;;;5.15;3.28;;;23.00;90.80;;;;;;5025347;28;20041;-79
2022/06/16 10:55:14;;;;;;;3.63;2.60;;;23.20;90.90;;;;;;5017452;28;20419;-79
2022/06/16 10:57:46;;;;;;;4.57;2.67;;;23.20;90.40;;;;;;5004506;28;20507;-80
2022/06/16 11:00:23;;;;;;;3.33;2.40;;;23.20;90.80;;;;;;5006258;28;20038;-80
2022/06/16 11:02:54;;;;;;;4.93;2.90;;;23.40;90.60;;;;;;5012568;28;20262;-80
2022/06/16 11:05:20;;;;;;;8.20;2.95;;;23.40;88.50;;;;;;5006792;28;20049;-79
2022/06/16 11:07:46;;;;;;;4.78;3.17;;;23.40;89.80;;;;;;5012170;28;20050;-80
2022/06/16 11:10:28;;;;;;;4.90;2.80;;;23.50;90.10;;;;;;4995551;28;20043;-80
2022/06/16 11:12:55;;;;;;;6.38;3.05;;;23.60;90.30;;;;;;5026250;28;20403;-78
2022/06/16 11:15:31;;;;;;;7.30;3.40;;;23.60;90.40;;;;;;4999318;28;20037;-79
2022/06/16 11:18:00;;;;;;;4.47;3.30;;;23.70;90.40;;;;;;5024737;28;20041;-78
2022/06/16 11:20:43;;;;;;;6.38;3.03;;;23.70;89.50;;;;;;5008962;28;20499;-78
2022/06/16 11:23:27;;;;;;;7.13;3.05;;;23.80;90.20;;;;;;4994391;28;20075;-78
2022/06/16 11:26:17;;;;;;;5.53;3.13;;;23.90;90.50;;;;;;5025179;28;20706;-78
2022/06/16 11:28:44;;;;;;;4.45;3.40;;;23.90;89.80;;;;;;5026371;28;20040;-80
2022/06/16 11:31:15;;;;;;;4.55;3.50;;;23.90;89.90;;;;;;5011760;28;20119;-79
2022/06/16 11:36:46;;;;;;;6.45;3.92;;;24.00;89.30;;;;;;5003969;28;20042;-79
2022/06/16 11:39:29;;;;;;;7.53;4.40;;;24.00;88.50;;;;;;5031588;28;20067;-80
2022/06/16 11:41:56;;;;;;;7.28;3.30;;;24.20;88.70;;;;;;5010881;28;20045;-80
2022/06/16 11:44:56;;;;;;;6.10;3.05;;;24.20;88.80;;;;;;5012418;28;20482;-81
2022/06/16 11:47:44;;;;;;;5.07;3.80;;;24.40;89.10;;;;;;5010994;28;20033;-80
2022/06/16 11:50:31;;;;;;;7.43;4.10;;;24.40;87.80;;;;;;5029096;28;20072;-79
2022/06/16 11:53:28;;;;;;;8.60;4.50;;;24.40;86.00;;;;;;5000073;28;20030;-79
2022/06/16 11:56:01;;;;;;;7.13;3.63;;;24.40;86.10;;;;;;5029153;28;20038;-80
2022/06/16 11:59:13;;;;;;;4.30;3.28;;;24.50;89.50;;;;;;5028320;28;20056;-80
2022/06/16 12:01:46;;;;;;;6.28;3.30;;;24.60;87.40;;;;;;5004265;28;20054;-79
2022/06/16 12:04:39;;;;;;;14.63;3.20;;;24.60;89.50;;;;;;5013136;28;20407;-80
2022/06/16 12:07:33;;;;;;;5.07;3.63;;;24.80;87.70;;;;;;5023045;28;20091;-80
2022/06/16 12:10:20;;;;;;;5.30;3.20;;;24.80;88.70;;;;;;5030914;28;20565;-79
2022/06/16 12:13:00;;;;;;;11.52;4.28;;;24.50;87.60;;;;;;5010001;28;20514;-78
2022/06/16 12:15:38;;;;;;;8.18;3.70;;;24.50;87.30;;;;;;5025781;28;20049;-76
2022/06/16 12:18:16;;;;;;;6.30;3.20;;;24.40;87.20;;;;;;5001699;28;20041;-77
2022/06/16 12:20:59;;;;;;;5.70;3.15;;;24.50;90.00;;;;;;5021351;28;20130;-77
2022/06/16 12:23:56;;;;;;;6.07;3.60;;;24.60;90.30;;;;;;5011343;28;20728;-77
2022/06/16 12:26:34;;;;;;;5.05;3.33;;;24.70;87.30;;;;;;5018041;28;20045;-77
2022/06/16 12:29:37;;;;;;;6.60;4.15;;;24.40;87.50;;;;;;5028110;28;20037;-77
2022/06/16 12:32:11;;;;;;;8.73;3.50;;;24.20;87.00;;;;;;5001844;28;20057;-77
2022/06/16 12:35:18;;;;;;;6.13;3.33;;;24.20;88.10;;;;;;5018605;28;20088;-77
2022/06/16 12:37:49;;;;;;;4.82;3.58;;;24.30;88.50;;;;;;5025724;28;20076;-75
2022/06/16 12:40:24;;;;;;;4.80;2.92;;;24.50;88.20;;;;;;5013501;28;20076;-74
2022/06/16 12:42:57;;;;;;;6.35;3.28;;;24.60;87.30;;;;;;5016795;28;20033;-75
2022/06/16 12:45:36;;;;;;;3.67;2.88;;;24.80;86.80;;;;;;5026218;28;20041;-74
2022/06/16 12:48:09;;;;;;;4.00;2.83;;;25.00;87.50;;;;;;5019313;28;20064;-74
2022/06/16 12:50:43;;;;;;;4.68;3.10;;;25.00;86.40;;;;;;5011966;28;20104;-74
2022/06/16 12:53:22;;;;;;;5.38;3.00;;;25.00;85.70;;;;;;5023222;28;20056;-73
2022/06/16 12:56:25;;;;;;;5.00;3.00;;;25.00;85.30;;;;;;5021265;28;20659;-74
2022/06/16 12:58:56;;;;;;;4.03;2.97;;;25.00;84.40;;;;;;5022896;28;20045;-75
2022/06/16 13:01:22;;;;;;;4.93;2.90;;;25.20;87.50;;;;;;5017382;28;20052;-75
2022/06/16 13:04:03;;;;;;;7.53;3.65;;;25.30;85.50;;;;;;5008492;28;20041;-74
2022/06/16 13:06:30;;;;;;;5.28;3.03;;;25.20;84.60;;;;;;5000449;28;21723;-74
2022/06/16 13:08:59;;;;;;;4.22;3.17;;;25.10;84.10;;;;;;5014801;28;20077;-74
2022/06/16 13:11:35;;;;;;;6.15;3.00;;;24.70;84.20;;;;;;5009653;28;20133;-75
2022/06/16 13:14:10;;;;;;;4.47;2.65;;;24.50;84.30;;;;;;5030260;28;20057;-74
2022/06/16 13:16:41;;;;;;;5.55;2.80;;;24.40;84.80;;;;;;5025989;28;20049;-74
2022/06/16 13:19:13;;;;;;;4.28;2.72;;;24.50;84.80;;;;;;5016885;28;20030;-74
2022/06/16 13:21:49;;;;;;;4.55;3.05;;;24.70;84.80;;;;;;5000751;28;20495;-74
2022/06/16 13:24:23;;;;;;;5.50;2.80;;;24.80;83.00;;;;;;5020732;28;20077;-74
2022/06/16 13:27:25;;;;;;;4.53;2.78;;;25.00;83.20;;;;;;5000265;28;20418;-75
2022/06/16 13:29:51;;;;;;;4.95;2.70;;;25.20;84.50;;;;;;5001942;28;20049;-74
2022/06/16 13:32:33;;;;;;;5.45;2.88;;;25.20;82.40;;;;;;5012928;28;20261;-74
2022/06/16 13:35:01;;;;;;;7.00;3.03;;;25.30;82.90;;;;;;5017611;28;20453;-74
2022/06/16 13:37:38;;;;;;;5.20;2.88;;;25.30;83.30;;;;;;5031010;28;20065;-74
2022/06/16 13:40:07;;;;;;;5.03;3.00;;;25.30;81.90;;;;;;5020759;28;20061;-74
2022/06/16 13:42:54;;;;;;;4.47;2.70;;;25.10;81.20;;;;;;5028432;28;20091;-75
2022/06/16 13:45:32;;;;;;;6.32;2.67;;;25.00;81.60;;;;;;5016998;28;20046;-74
2022/06/16 13:48:11;;;;;;;5.35;2.92;;;24.80;80.70;;;;;;5023646;28;20618;-74